createdAt,value
2022-09-25T00:00:57.226Z,12.10
2022-09-25T00:02:58.985Z,12.10
2022-09-25T00:05:00.637Z,12.00
2022-09-25T00:07:02.270Z,12.00
2022-09-25T00:09:07.823Z,12.00
2022-09-25T00:11:12.661Z,11.90
2022-09-25T00:13:14.998Z,11.90
2022-09-25T00:15:16.600Z,11.90
2022-09-25T00:17:18.282Z,11.80
2022-09-25T00:19:39.802Z,11.80
2022-09-25T00:21:41.729Z,11.70
2022-09-25T00:23:44.819Z,11.70
2022-09-25T00:25:53.168Z,11.70
2022-09-25T00:27:55.160Z,11.70
2022-09-25T00:29:57.075Z,11.60
2022-09-25T00:31:58.774Z,11.60
2022-09-25T00:34:01.522Z,11.60
2022-09-25T00:36:04.952Z,11.60
2022-09-25T00:38:06.573Z,11.50
2022-09-25T00:40:08.430Z,11.50
2022-09-25T00:42:12.780Z,11.50
2022-09-25T00:44:33.229Z,11.40
2022-09-25T00:46:36.975Z,11.40
2022-09-25T00:48:42.368Z,11.40
2022-09-25T00:50:43.943Z,11.40
2022-09-25T00:52:46.366Z,11.30
2022-09-25T00:54:52.970Z,11.30
2022-09-25T00:56:56.211Z,11.30
2022-09-25T00:58:58.099Z,11.30
2022-09-25T01:01:00.130Z,11.20
2022-09-25T01:03:02.837Z,11.20
2022-09-25T01:05:06.825Z,11.10
2022-09-25T01:07:09.144Z,11.20
2022-09-25T01:09:11.156Z,11.20
2022-09-25T01:11:12.896Z,11.10
2022-09-25T01:13:15.353Z,11.10
2022-09-25T01:15:19.877Z,11.10
2022-09-25T01:17:33.138Z,11.10
2022-09-25T01:19:53.196Z,11.00
2022-09-25T01:22:00.646Z,11.00
2022-09-25T01:24:13.598Z,11.00
2022-09-25T01:26:31.298Z,11.00
2022-09-25T01:28:36.046Z,10.90
2022-09-25T01:30:40.668Z,10.90
2022-09-25T01:33:00.854Z,10.90
2022-09-25T01:35:05.616Z,10.90
2022-09-25T01:37:25.343Z,10.90
2022-09-25T01:39:32.385Z,10.90
2022-09-25T01:41:52.681Z,10.90
2022-09-25T01:43:59.840Z,10.90
2022-09-25T01:46:04.349Z,10.90
2022-09-25T01:48:09.118Z,10.90
2022-09-25T01:50:32.800Z,10.90
2022-09-25T01:52:39.738Z,10.80
2022-09-25T01:54:44.160Z,10.80
2022-09-25T01:57:00.022Z,10.80
2022-09-25T01:59:18.489Z,10.80
2022-09-25T02:01:27.391Z,10.80
2022-09-25T02:03:41.009Z,10.80
2022-09-25T02:05:47.028Z,10.80
2022-09-25T02:07:51.672Z,10.70
2022-09-25T02:09:54.856Z,10.70
2022-09-25T02:11:59.037Z,10.70
2022-09-25T02:14:07.251Z,10.70
2022-09-25T02:16:11.798Z,10.70
2022-09-25T02:18:33.586Z,10.70
2022-09-25T02:20:36.525Z,10.70
2022-09-25T02:22:38.212Z,10.70
2022-09-25T02:24:43.912Z,10.70
2022-09-25T02:26:45.608Z,10.60
2022-09-25T02:28:47.257Z,10.60
2022-09-25T02:30:49.340Z,10.50
2022-09-25T02:32:51.059Z,10.50
2022-09-25T02:34:52.860Z,10.50
2022-09-25T02:36:54.458Z,10.50
2022-09-25T02:38:56.246Z,10.40
2022-09-25T02:41:02.267Z,10.40
2022-09-25T02:43:21.940Z,10.40
2022-09-25T02:45:29.402Z,10.40
2022-09-25T02:47:37.140Z,10.40
2022-09-25T02:49:51.836Z,10.40
2022-09-25T02:51:53.468Z,10.40
2022-09-25T02:53:58.151Z,10.40
2022-09-25T02:56:02.103Z,10.30
2022-09-25T02:58:09.314Z,10.30
2022-09-25T03:00:11.781Z,10.30
2022-09-25T03:02:15.610Z,10.30
2022-09-25T03:04:17.881Z,10.30
2022-09-25T03:06:20.645Z,10.30
2022-09-25T03:08:38.464Z,10.30
2022-09-25T03:10:40.194Z,10.30
2022-09-25T03:12:41.790Z,10.20
2022-09-25T03:14:43.434Z,10.20
2022-09-25T03:16:45.151Z,10.20
2022-09-25T03:18:47.782Z,10.20
2022-09-25T03:20:49.579Z,10.20
2022-09-25T03:22:51.164Z,10.30
2022-09-25T03:24:52.751Z,10.10
2022-09-25T03:26:54.608Z,10.20
2022-09-25T03:28:56.478Z,10.10
2022-09-25T03:30:59.547Z,10.10
2022-09-25T03:33:01.186Z,10.10
2022-09-25T03:35:02.777Z,10.10
2022-09-25T03:37:04.407Z,10.10
2022-09-25T03:39:06.710Z,10.10
2022-09-25T03:41:09.525Z,10.00
2022-09-25T03:45:12.392Z,10.00
2022-09-25T03:47:14.106Z,10.00
2022-09-25T03:49:15.698Z,10.00
2022-09-25T03:51:17.317Z,10.00
2022-09-25T03:53:18.935Z,9.90
2022-09-25T03:55:22.027Z,10.00
2022-09-25T03:57:23.920Z,10.10
2022-09-25T03:59:25.962Z,10.00
2022-09-25T04:01:28.128Z,10.00
2022-09-25T04:03:30.294Z,10.00
2022-09-25T04:05:32.138Z,10.00
2022-09-25T04:07:33.854Z,10.00
2022-09-25T04:09:35.454Z,10.00
2022-09-25T04:11:38.088Z,10.00
2022-09-25T04:13:43.989Z,10.10
2022-09-25T04:15:45.576Z,9.90
2022-09-25T04:17:47.488Z,10.00
2022-09-25T04:19:49.188Z,10.10
2022-09-25T04:21:50.819Z,9.90
2022-09-25T04:24:11.382Z,10.00
2022-09-25T04:26:13.037Z,10.00
2022-09-25T04:28:14.652Z,10.00
2022-09-25T04:30:16.339Z,10.00
2022-09-25T04:32:36.641Z,10.00
2022-09-25T04:34:38.225Z,10.10
2022-09-25T04:36:41.355Z,10.00
2022-09-25T04:38:43.933Z,10.10
2022-09-25T04:40:46.039Z,10.10
2022-09-25T04:42:47.818Z,10.10
2022-09-25T04:44:49.427Z,10.20
2022-09-25T04:46:52.146Z,10.10
2022-09-25T04:48:53.835Z,10.20
2022-09-25T04:50:55.616Z,10.20
2022-09-25T04:52:57.522Z,10.20
2022-09-25T04:55:00.772Z,10.20
2022-09-25T04:57:02.835Z,10.20
2022-09-25T04:59:04.439Z,10.20
2022-09-25T05:01:08.358Z,10.20
2022-09-25T05:03:10.170Z,10.30
2022-09-25T05:05:11.879Z,10.40
2022-09-25T05:07:13.733Z,10.30
2022-09-25T05:09:15.333Z,10.30
2022-09-25T05:11:17.082Z,10.30
2022-09-25T05:13:18.702Z,10.30
2022-09-25T05:15:20.710Z,10.30
2022-09-25T05:17:22.335Z,10.30
2022-09-25T05:19:23.979Z,10.40
2022-09-25T05:21:25.676Z,10.40
2022-09-25T05:23:27.342Z,10.40
2022-09-25T05:25:29.015Z,10.40
2022-09-25T05:27:32.456Z,10.40
2022-09-25T05:29:34.507Z,10.40
2022-09-25T05:31:36.729Z,10.40
2022-09-25T05:33:38.368Z,10.40
2022-09-25T05:35:39.991Z,10.50
2022-09-25T05:37:41.649Z,10.40
2022-09-25T05:39:43.429Z,10.40
2022-09-25T05:41:45.056Z,10.50
2022-09-25T05:43:47.608Z,10.50
2022-09-25T05:45:55.921Z,10.50
2022-09-25T05:48:16.204Z,10.50
2022-09-25T05:50:17.826Z,10.50
2022-09-25T05:52:19.479Z,10.50
2022-09-25T05:54:21.070Z,10.60
2022-09-25T05:56:24.827Z,10.60
2022-09-25T05:58:27.113Z,10.60
2022-09-25T06:00:28.843Z,10.70
2022-09-25T06:02:30.593Z,10.60
2022-09-25T06:04:32.223Z,10.70
2022-09-25T06:06:33.833Z,10.60
2022-09-25T06:08:35.762Z,10.70
2022-09-25T06:10:37.432Z,10.70
2022-09-25T06:12:39.035Z,10.70
2022-09-25T06:14:41.142Z,10.70
2022-09-25T06:16:42.773Z,10.80
2022-09-25T06:18:44.384Z,10.70
2022-09-25T06:20:46.149Z,10.80
2022-09-25T06:22:54.659Z,10.80
2022-09-25T06:24:56.241Z,10.80
2022-09-25T06:26:57.850Z,10.80
2022-09-25T06:29:03.173Z,10.80
2022-09-25T06:31:05.426Z,10.90
2022-09-25T06:33:10.872Z,10.90
2022-09-25T06:35:12.493Z,10.90
2022-09-25T06:37:14.201Z,11.00
2022-09-25T06:39:15.803Z,11.00
2022-09-25T06:41:17.389Z,11.00
2022-09-25T06:43:18.998Z,11.00
2022-09-25T06:45:20.592Z,11.00
2022-09-25T06:47:26.589Z,11.10
2022-09-25T06:49:28.601Z,11.10
2022-09-25T06:51:33.968Z,11.00
2022-09-25T06:53:35.677Z,11.20
2022-09-25T06:55:37.714Z,11.20
2022-09-25T06:57:39.324Z,11.20
2022-09-25T06:59:40.957Z,11.20
2022-09-25T07:01:42.623Z,11.30
2022-09-25T07:03:48.460Z,11.30
2022-09-25T07:05:50.265Z,11.30
2022-09-25T07:07:51.949Z,11.30
2022-09-25T07:09:53.567Z,11.40
2022-09-25T07:11:56.099Z,11.40
2022-09-25T07:13:57.924Z,11.40
2022-09-25T07:16:00.906Z,11.40
2022-09-25T07:18:02.702Z,11.50
2022-09-25T07:20:04.673Z,11.50
2022-09-25T07:22:06.257Z,11.50
2022-09-25T07:24:08.426Z,11.50
2022-09-25T07:26:14.206Z,11.50
2022-09-25T07:28:16.367Z,11.60
2022-09-25T07:30:17.963Z,11.60
2022-09-25T07:32:20.698Z,11.70
2022-09-25T07:34:22.353Z,11.70
2022-09-25T07:36:24.540Z,11.70
2022-09-25T07:38:26.157Z,11.80
2022-09-25T07:40:28.849Z,11.90
2022-09-25T07:42:30.567Z,11.90
2022-09-25T07:44:37.993Z,11.90
2022-09-25T07:46:43.481Z,12.00
2022-09-25T07:48:47.873Z,12.10
2022-09-25T07:50:50.146Z,12.20
2022-09-25T07:52:52.572Z,12.30
2022-09-25T07:54:54.170Z,12.30
2022-09-25T07:56:55.775Z,12.40
2022-09-25T07:58:57.433Z,12.50
2022-09-25T08:01:00.116Z,12.60
2022-09-25T08:03:02.293Z,12.60
2022-09-25T08:05:04.043Z,12.70
2022-09-25T08:07:05.775Z,12.70
2022-09-25T08:09:10.663Z,12.80
2022-09-25T08:11:15.157Z,12.90
2022-09-25T08:13:20.895Z,12.90
2022-09-25T08:15:22.621Z,13.00
2022-09-25T08:17:24.246Z,13.00
2022-09-25T08:19:27.722Z,13.10
2022-09-25T08:21:29.329Z,13.20
2022-09-25T08:23:31.678Z,13.30
2022-09-25T08:25:33.298Z,13.30
2022-09-25T08:27:39.589Z,13.40
2022-09-25T08:29:41.238Z,13.50
2022-09-25T08:31:43.178Z,13.50
2022-09-25T08:33:49.267Z,13.60
2022-09-25T08:35:55.106Z,13.70
2022-09-25T08:37:57.370Z,13.80
2022-09-25T08:39:59.406Z,13.80
2022-09-25T08:42:01.925Z,13.90
2022-09-25T08:44:11.013Z,13.80
2022-09-25T08:46:36.620Z,13.80
2022-09-25T08:49:02.306Z,13.80
2022-09-25T08:51:06.918Z,13.80
2022-09-25T08:53:12.455Z,13.80
2022-09-25T08:55:22.186Z,13.80
2022-09-25T08:57:29.986Z,13.90
2022-09-25T08:59:36.964Z,13.90
2022-09-25T09:01:38.762Z,14.00
2022-09-25T09:03:59.373Z,14.10
2022-09-25T09:06:05.669Z,14.10
2022-09-25T09:08:12.635Z,14.20
2022-09-25T09:10:14.248Z,14.20
2022-09-25T09:12:21.147Z,14.20
2022-09-25T09:14:23.540Z,14.30
2022-09-25T09:16:37.586Z,14.30
2022-09-25T09:18:40.530Z,14.30
2022-09-25T09:20:50.387Z,14.30
2022-09-25T09:22:53.267Z,14.30
2022-09-25T09:25:09.257Z,14.30
2022-09-25T09:27:17.106Z,14.40
2022-09-25T09:29:26.617Z,14.40
2022-09-25T09:31:47.135Z,14.40
2022-09-25T09:34:07.686Z,14.40
2022-09-25T09:36:09.312Z,14.40
2022-09-25T09:38:31.436Z,14.40
2022-09-25T09:40:52.039Z,14.50
2022-09-25T09:43:05.876Z,14.50
2022-09-25T09:45:14.065Z,14.50
2022-09-25T09:47:18.731Z,14.50
2022-09-25T09:49:20.347Z,14.50
2022-09-25T09:51:24.330Z,14.50
2022-09-25T09:53:29.601Z,14.50
2022-09-25T09:55:34.344Z,14.40
2022-09-25T09:57:43.615Z,14.50
2022-09-25T10:00:02.022Z,14.50
2022-09-25T10:02:17.968Z,14.50
2022-09-25T10:04:22.550Z,14.50
2022-09-25T10:06:29.905Z,14.50
2022-09-25T10:08:31.570Z,14.50
2022-09-25T10:10:41.362Z,14.50
2022-09-25T10:12:45.957Z,14.50
2022-09-25T10:14:48.124Z,14.60
2022-09-25T10:16:51.589Z,14.60
2022-09-25T10:18:55.935Z,14.70
2022-09-25T10:21:00.086Z,14.70
2022-09-25T10:23:03.084Z,14.70
2022-09-25T10:25:05.406Z,14.80
2022-09-25T10:27:25.958Z,14.80
2022-09-25T10:29:27.716Z,14.80
2022-09-25T10:31:31.139Z,14.90
2022-09-25T10:33:33.054Z,14.90
2022-09-25T10:35:37.641Z,14.90
2022-09-25T10:37:39.341Z,14.90
2022-09-25T10:39:45.547Z,14.90
2022-09-25T10:41:47.612Z,15.00
2022-09-25T10:43:53.883Z,15.00
2022-09-25T10:46:05.697Z,15.00
2022-09-25T10:48:55.507Z,15.00
2022-09-25T10:51:06.171Z,15.10
2022-09-25T10:53:30.070Z,15.10
2022-09-25T10:55:37.118Z,15.20
2022-09-25T10:57:38.959Z,15.20
2022-09-25T10:59:41.136Z,15.20
2022-09-25T11:01:43.908Z,15.20
2022-09-25T11:03:45.695Z,15.20
2022-09-25T11:05:52.889Z,15.20
2022-09-25T11:07:55.439Z,15.30
2022-09-25T11:10:00.215Z,15.30
2022-09-25T11:12:13.343Z,15.30
2022-09-25T11:14:32.674Z,15.40
2022-09-25T11:16:47.584Z,15.40
2022-09-25T11:18:50.333Z,15.50
2022-09-25T11:21:01.250Z,15.60
2022-09-25T11:23:04.703Z,15.70
2022-09-25T11:25:13.472Z,15.80
2022-09-25T11:27:34.383Z,15.80
2022-09-25T11:29:38.564Z,15.90
2022-09-25T11:31:43.667Z,15.90
2022-09-25T11:33:45.595Z,15.90
2022-09-25T11:35:58.337Z,16.00
2022-09-25T11:38:02.367Z,16.00
2022-09-25T11:40:29.240Z,16.00
2022-09-25T11:42:34.947Z,16.10
2022-09-25T11:44:54.318Z,16.20
2022-09-25T11:47:02.131Z,16.20
2022-09-25T11:49:14.433Z,16.20
2022-09-25T11:51:19.335Z,16.30
2022-09-25T11:53:20.916Z,16.30
2022-09-25T11:55:22.564Z,16.30
2022-09-25T11:57:34.655Z,16.40
2022-09-25T11:59:39.678Z,16.50
2022-09-25T12:01:50.395Z,16.50
2022-09-25T12:04:12.684Z,16.60
2022-09-25T12:06:14.493Z,16.60
2022-09-25T12:08:28.089Z,16.60
2022-09-25T12:10:29.883Z,16.70
2022-09-25T12:12:50.158Z,16.70
2022-09-25T12:15:10.728Z,16.70
2022-09-25T12:17:24.603Z,16.80
2022-09-25T12:19:27.046Z,16.80
2022-09-25T12:21:33.895Z,16.80
2022-09-25T12:23:43.816Z,16.80
2022-09-25T12:26:04.114Z,16.80
2022-09-25T12:28:16.398Z,16.70
2022-09-25T12:30:27.609Z,16.70
2022-09-25T12:32:38.159Z,16.60
2022-09-25T12:34:58.403Z,16.50
2022-09-25T12:36:59.980Z,16.50
2022-09-25T12:39:08.762Z,16.50
2022-09-25T12:41:16.808Z,16.50
2022-09-25T12:43:41.186Z,16.40
2022-09-25T12:45:48.247Z,16.40
2022-09-25T12:48:08.554Z,16.40
2022-09-25T12:50:13.581Z,16.30
2022-09-25T12:52:21.136Z,16.20
2022-09-25T12:54:36.487Z,16.10
2022-09-25T12:56:51.854Z,16.10
2022-09-25T12:58:57.592Z,16.00
2022-09-25T13:01:25.778Z,16.00
2022-09-25T13:03:39.666Z,15.90
2022-09-25T13:05:54.485Z,15.90
2022-09-25T13:08:00.039Z,15.80
2022-09-25T13:10:03.884Z,15.80
2022-09-25T13:12:08.844Z,15.70
2022-09-25T13:14:14.291Z,15.70
2022-09-25T13:16:16.335Z,15.70
2022-09-25T13:18:20.278Z,15.60
2022-09-25T13:20:31.857Z,15.60
2022-09-25T13:22:40.296Z,15.60
2022-09-25T13:24:46.510Z,15.60
2022-09-25T13:26:53.507Z,15.50
2022-09-25T13:28:57.367Z,15.50
2022-09-25T13:31:09.272Z,15.50
2022-09-25T13:33:19.358Z,15.40
2022-09-25T13:35:22.044Z,15.40
2022-09-25T13:37:25.486Z,15.30
2022-09-25T13:40:12.331Z,15.30
2022-09-25T13:42:16.036Z,15.20
2022-09-25T13:44:37.477Z,15.20
2022-09-25T13:46:39.123Z,15.10
2022-09-25T13:48:40.740Z,15.10
2022-09-25T13:50:46.847Z,15.00
2022-09-25T13:52:48.438Z,15.00
2022-09-25T13:54:50.143Z,15.00
2022-09-25T13:56:54.436Z,14.90
2022-09-25T13:59:02.202Z,14.90
2022-09-25T14:01:10.530Z,14.90
2022-09-25T14:03:31.813Z,14.80
2022-09-25T14:05:36.195Z,14.80
2022-09-25T14:07:40.384Z,14.80
2022-09-25T14:09:43.869Z,14.80
2022-09-25T14:12:06.260Z,14.70
2022-09-25T14:14:10.215Z,14.70
2022-09-25T14:16:28.416Z,14.70
2022-09-25T14:18:40.983Z,14.70
2022-09-25T14:20:43.865Z,14.60
2022-09-25T14:22:50.386Z,14.60
2022-09-25T14:24:53.274Z,14.60
2022-09-25T14:26:55.576Z,14.60
2022-09-25T14:28:58.053Z,14.60
2022-09-25T14:31:17.225Z,14.60
2022-09-25T14:33:28.269Z,14.60
2022-09-25T14:35:35.332Z,14.60
2022-09-25T14:37:44.722Z,14.50
2022-09-25T14:40:06.713Z,14.60
2022-09-25T14:42:17.097Z,14.60
2022-09-25T14:44:37.031Z,14.60
2022-09-25T14:46:38.708Z,14.70
2022-09-25T14:48:45.871Z,14.70
2022-09-25T14:50:49.357Z,14.70
2022-09-25T14:53:01.720Z,14.70
2022-09-25T14:55:04.211Z,14.80
2022-09-25T14:57:07.527Z,14.80
2022-09-25T14:59:11.641Z,14.80
2022-09-25T15:01:17.974Z,14.80
2022-09-25T15:03:22.937Z,14.90
2022-09-25T15:05:24.545Z,14.80
2022-09-25T15:07:27.822Z,14.90
2022-09-25T15:09:36.974Z,14.80
2022-09-25T15:11:40.446Z,14.80
2022-09-25T15:13:42.783Z,14.80
2022-09-25T15:16:06.128Z,14.80
2022-09-25T15:18:13.077Z,14.80
2022-09-25T15:20:17.133Z,14.80
2022-09-25T15:22:20.500Z,14.80
2022-09-25T15:24:24.626Z,14.80
2022-09-25T15:26:29.010Z,14.80
2022-09-25T15:28:31.831Z,14.80
2022-09-25T15:30:35.902Z,14.70
2022-09-25T15:32:39.626Z,14.70
2022-09-25T15:34:43.308Z,14.70
2022-09-25T15:36:44.969Z,14.60
2022-09-25T15:38:52.533Z,14.60
2022-09-25T15:40:55.086Z,14.60
2022-09-25T15:42:56.987Z,14.60
2022-09-25T15:45:03.288Z,14.50
2022-09-25T15:47:05.559Z,14.50
2022-09-25T15:49:07.349Z,14.50
2022-09-25T15:51:20.288Z,14.50
2022-09-25T15:53:27.732Z,14.40
2022-09-25T15:55:31.143Z,14.40
2022-09-25T15:57:33.383Z,14.40
2022-09-25T16:00:07.533Z,14.40
2022-09-25T16:02:35.534Z,14.30
2022-09-25T16:04:46.183Z,14.30
2022-09-25T16:06:49.891Z,14.30
2022-09-25T16:09:07.806Z,14.20
2022-09-25T16:11:21.695Z,14.20
2022-09-25T16:13:25.551Z,14.20
2022-09-25T16:15:27.430Z,14.20
2022-09-25T16:17:33.541Z,14.20
2022-09-25T16:19:35.236Z,14.20
2022-09-25T16:21:39.621Z,14.10
2022-09-25T16:23:43.087Z,14.10
2022-09-25T16:25:44.806Z,14.10
2022-09-25T16:27:49.522Z,14.10
2022-09-25T16:29:51.387Z,14.10
2022-09-25T16:31:54.289Z,14.10
2022-09-25T16:33:57.382Z,14.10
2022-09-25T16:36:17.648Z,14.10
2022-09-25T16:38:30.811Z,14.00
2022-09-25T16:40:38.357Z,14.00
2022-09-25T16:42:40.258Z,14.00
2022-09-25T16:44:46.704Z,14.00
2022-09-25T16:46:52.216Z,13.90
2022-09-25T16:48:57.901Z,13.90
2022-09-25T16:51:01.231Z,13.90
2022-09-25T16:53:03.555Z,13.90
2022-09-25T16:55:09.134Z,13.90
2022-09-25T16:57:16.393Z,13.90
2022-09-25T16:59:19.304Z,13.90
2022-09-25T17:01:21.816Z,13.80
2022-09-25T17:03:23.472Z,13.80
2022-09-25T17:05:26.810Z,13.80
2022-09-25T17:07:29.407Z,13.80
2022-09-25T17:09:34.016Z,13.70
2022-09-25T17:11:35.633Z,13.70
2022-09-25T17:13:37.503Z,13.70
2022-09-25T17:15:40.481Z,13.70
2022-09-25T17:17:42.260Z,13.60
2022-09-25T17:19:43.880Z,13.60
2022-09-25T17:21:51.322Z,13.60
2022-09-25T17:23:53.123Z,13.60
2022-09-25T17:26:00.824Z,13.50
2022-09-25T17:28:03.353Z,13.50
2022-09-25T17:30:05.696Z,13.50
2022-09-25T17:32:11.432Z,13.40
2022-09-25T17:34:16.214Z,13.40
2022-09-25T17:36:17.851Z,13.40
2022-09-25T17:38:20.043Z,13.40
2022-09-25T17:40:21.905Z,13.30
2022-09-25T17:42:26.338Z,13.40
2022-09-25T17:44:31.372Z,13.40
2022-09-25T17:46:36.334Z,13.30
2022-09-25T17:48:38.133Z,13.30
2022-09-25T17:50:40.041Z,13.30
2022-09-25T17:52:41.663Z,13.30
2022-09-25T17:54:43.482Z,13.30
2022-09-25T17:56:46.471Z,13.20
2022-09-25T17:58:48.264Z,13.20
2022-09-25T18:00:50.967Z,13.20
2022-09-25T18:02:52.913Z,13.20
2022-09-25T18:04:54.702Z,13.10
2022-09-25T18:06:56.821Z,13.20
2022-09-25T18:09:04.306Z,13.10
2022-09-25T18:11:05.977Z,13.10
2022-09-25T18:13:10.626Z,13.10
2022-09-25T18:15:13.507Z,13.10
2022-09-25T18:17:15.591Z,13.10
2022-09-25T18:19:37.494Z,13.00
2022-09-25T18:21:57.939Z,13.00
2022-09-25T18:23:59.586Z,13.00
2022-09-25T18:26:05.448Z,13.00
2022-09-25T18:28:07.846Z,13.00
2022-09-25T18:30:14.278Z,13.00
2022-09-25T18:32:15.915Z,13.00
2022-09-25T18:34:18.224Z,13.00
2022-09-25T18:36:19.982Z,13.00
2022-09-25T18:38:22.663Z,13.00
2022-09-25T18:40:24.309Z,13.00
2022-09-25T18:42:27.980Z,13.00
2022-09-25T18:44:30.343Z,13.00
2022-09-25T18:46:32.055Z,13.00
2022-09-25T18:48:37.070Z,13.00
2022-09-25T18:50:38.729Z,13.00
2022-09-25T18:52:41.334Z,12.90
2022-09-25T18:54:43.201Z,12.90
2022-09-25T18:56:44.882Z,12.90
2022-09-25T18:58:47.419Z,12.90
2022-09-25T19:00:49.134Z,12.90
2022-09-25T19:02:50.889Z,12.90
2022-09-25T19:04:54.991Z,12.90
2022-09-25T19:06:56.663Z,12.90
2022-09-25T19:08:58.511Z,12.90
2022-09-25T19:11:00.471Z,12.90
2022-09-25T19:13:02.347Z,12.90
2022-09-25T19:15:04.814Z,12.90
2022-09-25T19:17:06.510Z,12.90
2022-09-25T19:19:08.586Z,12.90
2022-09-25T19:21:13.591Z,12.90
2022-09-25T19:23:15.269Z,12.90
2022-09-25T19:25:22.202Z,12.90
2022-09-25T19:27:25.514Z,12.90
2022-09-25T19:29:27.195Z,12.90
2022-09-25T19:31:29.796Z,12.90
2022-09-25T19:33:33.268Z,12.90
2022-09-25T19:35:34.892Z,12.90
2022-09-25T19:37:37.186Z,12.90
2022-09-25T19:39:57.691Z,12.90
2022-09-25T19:41:59.331Z,12.80
2022-09-25T19:44:04.165Z,12.80
2022-09-25T19:46:08.948Z,12.80
2022-09-25T19:48:10.709Z,12.90
2022-09-25T19:50:12.868Z,12.90
2022-09-25T19:52:14.513Z,12.90
2022-09-25T19:54:16.224Z,12.80
2022-09-25T19:56:21.245Z,12.90
2022-09-25T19:58:23.573Z,12.80
2022-09-25T20:00:25.522Z,12.80
2022-09-25T20:02:29.560Z,12.80
2022-09-25T20:04:31.301Z,12.80
2022-09-25T20:06:34.709Z,12.80
2022-09-25T20:08:36.445Z,12.80
2022-09-25T20:10:38.140Z,12.90
2022-09-25T20:12:39.749Z,12.90
2022-09-25T20:14:41.392Z,12.90
2022-09-25T20:16:43.137Z,12.90
2022-09-25T20:18:48.431Z,12.90
2022-09-25T20:20:50.117Z,12.90
2022-09-25T20:22:51.877Z,12.90
2022-09-25T20:24:53.492Z,12.90
2022-09-25T20:26:55.625Z,12.90
2022-09-25T20:29:01.646Z,12.90
2022-09-25T20:31:05.150Z,12.90
2022-09-25T20:33:06.806Z,12.90
2022-09-25T20:35:08.572Z,12.90
2022-09-25T20:37:10.597Z,12.90
2022-09-25T20:39:15.596Z,12.90
2022-09-25T20:41:20.914Z,12.90
2022-09-25T20:43:22.581Z,12.90
2022-09-25T20:45:24.309Z,12.80
2022-09-25T20:47:30.121Z,12.80
2022-09-25T20:49:31.738Z,12.80
2022-09-25T20:51:35.438Z,12.70
2022-09-25T20:53:37.827Z,12.80
2022-09-25T20:55:39.948Z,12.70
2022-09-25T20:57:41.682Z,12.70
2022-09-25T20:59:43.332Z,12.70
2022-09-25T21:01:45.036Z,12.70
2022-09-25T21:03:47.852Z,12.70
2022-09-25T21:05:49.479Z,12.70
2022-09-25T21:07:51.082Z,12.70
2022-09-25T21:09:53.430Z,12.70
2022-09-25T21:11:55.382Z,12.70
2022-09-25T21:14:00.689Z,12.80
2022-09-25T21:16:04.473Z,12.70
2022-09-25T21:18:07.099Z,12.70
2022-09-25T21:20:09.019Z,12.70
2022-09-25T21:22:10.882Z,12.70
2022-09-25T21:24:13.744Z,12.70
2022-09-25T21:26:15.778Z,12.70
2022-09-25T21:28:18.498Z,12.70
2022-09-25T21:30:20.239Z,12.70
2022-09-25T21:32:21.838Z,12.70
2022-09-25T21:34:23.434Z,12.70
2022-09-25T21:36:25.944Z,12.60
2022-09-25T21:38:27.752Z,12.60
2022-09-25T21:40:29.518Z,12.60
2022-09-25T21:42:31.243Z,12.60
2022-09-25T21:44:32.884Z,12.50
2022-09-25T21:46:34.926Z,12.50
2022-09-25T21:48:37.209Z,12.60
2022-09-25T21:50:38.831Z,12.50
2022-09-25T21:52:40.432Z,12.50
2022-09-25T21:54:42.092Z,12.50
2022-09-25T21:56:44.540Z,12.50
2022-09-25T21:58:46.667Z,12.50
2022-09-25T22:00:48.360Z,12.50
2022-09-25T22:02:50.202Z,12.50
2022-09-25T22:04:51.868Z,12.50
2022-09-25T22:06:53.886Z,12.50
2022-09-25T22:08:56.736Z,12.50
2022-09-25T22:10:59.320Z,12.50
2022-09-25T22:13:01.451Z,12.50
2022-09-25T22:15:03.281Z,12.50
2022-09-25T22:17:05.053Z,12.50
2022-09-25T22:19:11.705Z,12.50
2022-09-25T22:21:14.545Z,12.40
2022-09-25T22:23:16.196Z,12.40
2022-09-25T22:25:17.790Z,12.40
2022-09-25T22:27:19.410Z,12.40
2022-09-25T22:29:21.338Z,12.40
2022-09-25T22:31:24.777Z,12.40
2022-09-25T22:33:26.485Z,12.40
2022-09-25T22:35:28.098Z,12.40
2022-09-25T22:37:30.672Z,12.40
2022-09-25T22:39:32.322Z,12.40
2022-09-25T22:41:33.970Z,12.40
2022-09-25T22:43:35.955Z,12.40
2022-09-25T22:45:37.646Z,12.40
2022-09-25T22:47:39.371Z,12.40
2022-09-25T22:49:40.956Z,12.40
2022-09-25T22:51:42.729Z,12.40
2022-09-25T22:53:44.795Z,12.40
2022-09-25T22:55:47.777Z,12.40
2022-09-25T22:57:49.792Z,12.40
2022-09-25T22:59:51.427Z,12.40
2022-09-25T23:01:53.984Z,12.40
2022-09-25T23:04:00.428Z,12.30
2022-09-25T23:06:02.307Z,12.30
2022-09-25T23:08:04.523Z,12.30
2022-09-25T23:10:06.597Z,12.30
2022-09-25T23:12:08.233Z,12.30
2022-09-25T23:14:12.088Z,12.30
2022-09-25T23:16:13.764Z,12.30
2022-09-25T23:18:15.438Z,12.30
2022-09-25T23:20:17.076Z,12.20
2022-09-25T23:22:18.961Z,12.20
2022-09-25T23:24:21.171Z,12.20
2022-09-25T23:26:22.776Z,12.30
2022-09-25T23:28:25.501Z,12.20
2022-09-25T23:30:27.219Z,12.20
2022-09-25T23:32:28.859Z,12.30
2022-09-25T23:34:30.483Z,12.10
2022-09-25T23:36:32.098Z,12.10
2022-09-25T23:38:34.277Z,12.10
2022-09-25T23:40:36.281Z,12.10
2022-09-25T23:42:37.912Z,12.10
2022-09-25T23:44:41.339Z,12.10
2022-09-25T23:46:43.444Z,12.10
2022-09-25T23:48:45.607Z,12.10
2022-09-25T23:50:49.698Z,12.10
2022-09-25T23:52:51.687Z,12.10
2022-09-25T23:54:53.358Z,12.10
2022-09-25T23:56:56.620Z,12.10
2022-09-25T23:58:59.264Z,12.10
